sensor_id;sensor_type;location;lat;lon;timestamp;temperature;humidity
67192;HTU21D;54120;53.504;49.426;2023-02-01T00:02:11;-6.81;78.57
67192;HTU21D;54120;53.504;49.426;2023-02-01T00:04:37;-6.92;78.93
67192;HTU21D;54120;53.504;49.426;2023-02-01T00:07:03;-7.01;79.58
67192;HTU21D;54120;53.504;49.426;2023-02-01T00:09:30;-7.04;79.61
67192;HTU21D;54120;53.504;49.426;2023-02-01T00:11:56;-7.05;79.79
67192;HTU21D;54120;53.504;49.426;2023-02-01T00:14:25;-7.10;79.82
67192;HTU21D;54120;53.504;49.426;2023-02-01T00:16:51;-7.13;79.88
67192;HTU21D;54120;53.504;49.426;2023-02-01T00:19:18;-7.08;80.18
67192;HTU21D;54120;53.504;49.426;2023-02-01T00:21:44;-7.08;79.65
67192;HTU21D;54120;53.504;49.426;2023-02-01T00:24:12;-7.13;79.39
67192;HTU21D;54120;53.504;49.426;2023-02-01T00:26:43;-7.18;79.40
67192;HTU21D;54120;53.504;49.426;2023-02-01T00:29:12;-7.22;79.66
67192;HTU21D;54120;53.504;49.426;2023-02-01T00:31:40;-7.24;79.94
67192;HTU21D;54120;53.504;49.426;2023-02-01T00:34:07;-7.18;79.68
67192;HTU21D;54120;53.504;49.426;2023-02-01T00:36:34;-7.23;79.05
67192;HTU21D;54120;53.504;49.426;2023-02-01T00:39:01;-7.26;79.37
67192;HTU21D;54120;53.504;49.426;2023-02-01T00:41:27;-7.29;79.72
67192;HTU21D;54120;53.504;49.426;2023-02-01T00:43:54;-7.25;79.49
67192;HTU21D;54120;53.504;49.426;2023-02-01T00:46:21;-7.24;79.17
67192;HTU21D;54120;53.504;49.426;2023-02-01T00:48:49;-7.26;79.32
67192;HTU21D;54120;53.504;49.426;2023-02-01T00:51:19;-7.29;79.17
67192;HTU21D;54120;53.504;49.426;2023-02-01T00:53:46;-7.34;79.41
67192;HTU21D;54120;53.504;49.426;2023-02-01T00:56:15;-7.38;79.21
67192;HTU21D;54120;53.504;49.426;2023-02-01T00:58:41;-7.46;79.70
67192;HTU21D;54120;53.504;49.426;2023-02-01T01:01:17;-7.48;79.95
67192;HTU21D;54120;53.504;49.426;2023-02-01T01:03:53;-7.45;79.65
67192;HTU21D;54120;53.504;49.426;2023-02-01T01:06:23;-7.53;79.93
67192;HTU21D;54120;53.504;49.426;2023-02-01T01:08:54;-7.50;79.49
67192;HTU21D;54120;53.504;49.426;2023-02-01T01:11:24;-7.46;79.17
67192;HTU21D;54120;53.504;49.426;2023-02-01T01:13:52;-7.59;79.22
67192;HTU21D;54120;53.504;49.426;2023-02-01T01:16:19;-7.69;79.77
67192;HTU21D;54120;53.504;49.426;2023-02-01T01:18:47;-7.71;79.94
67192;HTU21D;54120;53.504;49.426;2023-02-01T01:21:15;-7.77;80.39
67192;HTU21D;54120;53.504;49.426;2023-02-01T01:23:42;-7.78;80.15
67192;HTU21D;54120;53.504;49.426;2023-02-01T01:26:20;-7.86;80.23
67192;HTU21D;54120;53.504;49.426;2023-02-01T01:28:46;-7.96;80.69
67192;HTU21D;54120;53.504;49.426;2023-02-01T01:31:15;-8.04;81.05
67192;HTU21D;54120;53.504;49.426;2023-02-01T01:33:41;-8.01;80.81
67192;HTU21D;54120;53.504;49.426;2023-02-01T01:36:11;-8.05;80.94
67192;HTU21D;54120;53.504;49.426;2023-02-01T01:38:38;-8.13;80.78
67192;HTU21D;54120;53.504;49.426;2023-02-01T01:41:07;-8.16;81.07
67192;HTU21D;54120;53.504;49.426;2023-02-01T01:44:06;-8.24;81.35
67192;HTU21D;54120;53.504;49.426;2023-02-01T01:46:51;-8.28;81.49
67192;HTU21D;54120;53.504;49.426;2023-02-01T01:49:22;-8.30;81.93
67192;HTU21D;54120;53.504;49.426;2023-02-01T01:51:56;-8.37;81.74
67192;HTU21D;54120;53.504;49.426;2023-02-01T01:54:38;-8.49;82.01
67192;HTU21D;54120;53.504;49.426;2023-02-01T01:57:09;-8.58;82.53
67192;HTU21D;54120;53.504;49.426;2023-02-01T01:59:40;-8.62;82.54
67192;HTU21D;54120;53.504;49.426;2023-02-01T02:02:08;-8.78;82.89
67192;HTU21D;54120;53.504;49.426;2023-02-01T02:04:37;-8.87;83.21
67192;HTU21D;54120;53.504;49.426;2023-02-01T02:07:10;-8.93;83.32
67192;HTU21D;54120;53.504;49.426;2023-02-01T02:09:37;-8.94;83.74
67192;HTU21D;54120;53.504;49.426;2023-02-01T02:12:05;-8.99;83.41
67192;HTU21D;54120;53.504;49.426;2023-02-01T02:14:33;-9.00;83.29
67192;HTU21D;54120;53.504;49.426;2023-02-01T02:22:42;-9.20;83.60
67192;HTU21D;54120;53.504;49.426;2023-02-01T02:39:28;-9.34;84.32
67192;HTU21D;54120;53.504;49.426;2023-02-01T02:42:02;-9.28;84.31
67192;HTU21D;54120;53.504;49.426;2023-02-01T02:48:45;-9.28;83.57
67192;HTU21D;54120;53.504;49.426;2023-02-01T02:51:25;-9.36;83.75
67192;HTU21D;54120;53.504;49.426;2023-02-01T02:54:15;-9.43;84.00
67192;HTU21D;54120;53.504;49.426;2023-02-01T02:57:06;-9.45;84.03
67192;HTU21D;54120;53.504;49.426;2023-02-01T02:59:53;-9.53;84.45
67192;HTU21D;54120;53.504;49.426;2023-02-01T03:02:42;-9.58;84.71
67192;HTU21D;54120;53.504;49.426;2023-02-01T03:05:35;-9.56;84.91
67192;HTU21D;54120;53.504;49.426;2023-02-01T03:08:16;-9.54;85.21
67192;HTU21D;54120;53.504;49.426;2023-02-01T03:11:00;-9.57;84.66
67192;HTU21D;54120;53.504;49.426;2023-02-01T03:24:48;-9.59;84.46
67192;HTU21D;54120;53.504;49.426;2023-02-01T03:27:27;-9.61;84.64
67192;HTU21D;54120;53.504;49.426;2023-02-01T03:32:47;-9.70;85.08
67192;HTU21D;54120;53.504;49.426;2023-02-01T03:41:40;-9.57;84.73
67192;HTU21D;54120;53.504;49.426;2023-02-01T03:49:47;-9.53;84.75
67192;HTU21D;54120;53.504;49.426;2023-02-01T03:52:31;-9.59;84.68
67192;HTU21D;54120;53.504;49.426;2023-02-01T03:55:00;-9.39;84.78
67192;HTU21D;54120;53.504;49.426;2023-02-01T03:57:32;-9.43;84.71
67192;HTU21D;54120;53.504;49.426;2023-02-01T04:00:20;-9.38;84.58
67192;HTU21D;54120;53.504;49.426;2023-02-01T04:02:48;-9.33;84.27
67192;HTU21D;54120;53.504;49.426;2023-02-01T04:05:16;-9.29;84.20
67192;HTU21D;54120;53.504;49.426;2023-02-01T04:07:43;-9.25;84.16
67192;HTU21D;54120;53.504;49.426;2023-02-01T04:10:10;-9.26;84.13
67192;HTU21D;54120;53.504;49.426;2023-02-01T04:12:37;-9.15;84.10
67192;HTU21D;54120;53.504;49.426;2023-02-01T04:15:07;-9.07;83.63
67192;HTU21D;54120;53.504;49.426;2023-02-01T04:17:34;-9.01;83.49
67192;HTU21D;54120;53.504;49.426;2023-02-01T04:20:00;-8.98;83.17
67192;HTU21D;54120;53.504;49.426;2023-02-01T04:22:26;-8.94;83.06
67192;HTU21D;54120;53.504;49.426;2023-02-01T04:24:55;-8.95;82.75
67192;HTU21D;54120;53.504;49.426;2023-02-01T04:27:21;-8.94;82.74
67192;HTU21D;54120;53.504;49.426;2023-02-01T04:29:48;-8.97;82.85
67192;HTU21D;54120;53.504;49.426;2023-02-01T04:32:17;-8.95;82.79
67192;HTU21D;54120;53.504;49.426;2023-02-01T04:34:43;-8.94;82.68
67192;HTU21D;54120;53.504;49.426;2023-02-01T04:37:09;-8.88;82.62
67192;HTU21D;54120;53.504;49.426;2023-02-01T04:39:35;-8.77;82.07
67192;HTU21D;54120;53.504;49.426;2023-02-01T04:42:02;-8.55;81.36
67192;HTU21D;54120;53.504;49.426;2023-02-01T04:44:28;-8.41;80.43
67192;HTU21D;54120;53.504;49.426;2023-02-01T04:46:54;-8.29;79.87
67192;HTU21D;54120;53.504;49.426;2023-02-01T04:49:20;-8.31;79.44
67192;HTU21D;54120;53.504;49.426;2023-02-01T04:51:51;-8.14;78.74
67192;HTU21D;54120;53.504;49.426;2023-02-01T04:54:17;-8.18;78.43
67192;HTU21D;54120;53.504;49.426;2023-02-01T04:56:43;-8.20;79.14
67192;HTU21D;54120;53.504;49.426;2023-02-01T04:59:11;-7.63;77.23
67192;HTU21D;54120;53.504;49.426;2023-02-01T05:01:37;-6.86;74.38
67192;HTU21D;54120;53.504;49.426;2023-02-01T05:04:03;-6.23;71.68
67192;HTU21D;54120;53.504;49.426;2023-02-01T05:06:30;-5.70;70.13
67192;HTU21D;54120;53.504;49.426;2023-02-01T05:08:56;-4.83;66.64
67192;HTU21D;54120;53.504;49.426;2023-02-01T05:11:22;-3.99;64.14
67192;HTU21D;54120;53.504;49.426;2023-02-01T05:14:06;-2.90;59.51
67192;HTU21D;54120;53.504;49.426;2023-02-01T05:16:33;-3.08;58.22
67192;HTU21D;54120;53.504;49.426;2023-02-01T05:18:59;-3.25;58.89
67192;HTU21D;54120;53.504;49.426;2023-02-01T05:21:25;-2.83;58.42
67192;HTU21D;54120;53.504;49.426;2023-02-01T05:23:51;-2.52;57.04
67192;HTU21D;54120;53.504;49.426;2023-02-01T05:26:40;-2.78;57.39
67192;HTU21D;54120;53.504;49.426;2023-02-01T05:29:07;-2.20;56.60
67192;HTU21D;54120;53.504;49.426;2023-02-01T05:31:33;-2.63;56.15
67192;HTU21D;54120;53.504;49.426;2023-02-01T05:34:00;-3.19;57.95
67192;HTU21D;54120;53.504;49.426;2023-02-01T05:36:26;-2.95;56.31
67192;HTU21D;54120;53.504;49.426;2023-02-01T05:38:52;-3.36;57.48
67192;HTU21D;54120;53.504;49.426;2023-02-01T05:41:19;-3.33;57.41
67192;HTU21D;54120;53.504;49.426;2023-02-01T05:43:45;-3.97;58.70
67192;HTU21D;54120;53.504;49.426;2023-02-01T05:46:12;-4.98;62.26
67192;HTU21D;54120;53.504;49.426;2023-02-01T05:48:42;-5.94;66.21
67192;HTU21D;54120;53.504;49.426;2023-02-01T05:51:09;-5.25;65.78
67192;HTU21D;54120;53.504;49.426;2023-02-01T05:53:36;-4.31;62.13
67192;HTU21D;54120;53.504;49.426;2023-02-01T05:56:03;-3.70;59.20
67192;HTU21D;54120;53.504;49.426;2023-02-01T05:58:30;-4.06;59.38
67192;HTU21D;54120;53.504;49.426;2023-02-01T06:00:59;-3.56;60.26
67192;HTU21D;54120;53.504;49.426;2023-02-01T06:03:26;-1.45;51.62
67192;HTU21D;54120;53.504;49.426;2023-02-01T06:05:52;-1.57;51.63
67192;HTU21D;54120;53.504;49.426;2023-02-01T06:08:19;-1.23;50.63
67192;HTU21D;54120;53.504;49.426;2023-02-01T06:10:46;-1.16;50.53
67192;HTU21D;54120;53.504;49.426;2023-02-01T06:13:12;-1.12;50.40
67192;HTU21D;54120;53.504;49.426;2023-02-01T06:15:38;-1.10;49.76
67192;HTU21D;54120;53.504;49.426;2023-02-01T06:18:05;-1.63;51.56
67192;HTU21D;54120;53.504;49.426;2023-02-01T06:20:31;-1.71;51.08
67192;HTU21D;54120;53.504;49.426;2023-02-01T06:22:57;-2.78;54.17
67192;HTU21D;54120;53.504;49.426;2023-02-01T06:25:23;-3.01;55.69
67192;HTU21D;54120;53.504;49.426;2023-02-01T06:27:49;-3.94;58.64
67192;HTU21D;54120;53.504;49.426;2023-02-01T06:30:16;-4.19;60.29
67192;HTU21D;54120;53.504;49.426;2023-02-01T06:32:43;-4.34;60.15
67192;HTU21D;54120;53.504;49.426;2023-02-01T06:35:10;-4.53;61.22
67192;HTU21D;54120;53.504;49.426;2023-02-01T06:37:42;-4.39;61.71
67192;HTU21D;54120;53.504;49.426;2023-02-01T06:40:08;-4.09;60.64
67192;HTU21D;54120;53.504;49.426;2023-02-01T06:42:34;-4.02;59.97
67192;HTU21D;54120;53.504;49.426;2023-02-01T06:45:00;-4.00;60.01
67192;HTU21D;54120;53.504;49.426;2023-02-01T06:47:27;-3.87;59.70
67192;HTU21D;54120;53.504;49.426;2023-02-01T06:49:53;-3.07;57.58
67192;HTU21D;54120;53.504;49.426;2023-02-01T06:52:20;-1.89;53.73
67192;HTU21D;54120;53.504;49.426;2023-02-01T06:54:46;-0.90;50.59
67192;HTU21D;54120;53.504;49.426;2023-02-01T06:57:14;-0.36;47.49
67192;HTU21D;54120;53.504;49.426;2023-02-01T06:59:40;-1.31;49.91
67192;HTU21D;54120;53.504;49.426;2023-02-01T07:02:12;-2.54;54.17
67192;HTU21D;54120;53.504;49.426;2023-02-01T07:04:38;-2.93;55.78
67192;HTU21D;54120;53.504;49.426;2023-02-01T07:07:04;-2.71;56.00
67192;HTU21D;54120;53.504;49.426;2023-02-01T07:09:30;-2.61;54.94
67192;HTU21D;54120;53.504;49.426;2023-02-01T07:11:56;-3.07;55.85
67192;HTU21D;54120;53.504;49.426;2023-02-01T07:14:22;-3.27;56.94
67192;HTU21D;54120;53.504;49.426;2023-02-01T07:16:49;-3.41;58.40
67192;HTU21D;54120;53.504;49.426;2023-02-01T07:19:15;-3.34;57.90
67192;HTU21D;54120;53.504;49.426;2023-02-01T07:21:41;-3.32;57.06
67192;HTU21D;54120;53.504;49.426;2023-02-01T07:24:07;-3.45;58.87
67192;HTU21D;54120;53.504;49.426;2023-02-01T07:26:33;-3.48;57.61
67192;HTU21D;54120;53.504;49.426;2023-02-01T07:28:59;-4.09;59.30
67192;HTU21D;54120;53.504;49.426;2023-02-01T07:31:25;-4.30;60.25
67192;HTU21D;54120;53.504;49.426;2023-02-01T07:33:52;-4.26;60.29
67192;HTU21D;54120;53.504;49.426;2023-02-01T07:36:19;-4.04;59.59
67192;HTU21D;54120;53.504;49.426;2023-02-01T07:38:45;-3.92;59.59
67192;HTU21D;54120;53.504;49.426;2023-02-01T07:41:15;-3.78;59.13
67192;HTU21D;54120;53.504;49.426;2023-02-01T07:43:41;-3.68;58.93
67192;HTU21D;54120;53.504;49.426;2023-02-01T07:46:09;-3.70;59.03
67192;HTU21D;54120;53.504;49.426;2023-02-01T07:48:36;-3.72;59.31
67192;HTU21D;54120;53.504;49.426;2023-02-01T07:51:05;-3.69;58.98
67192;HTU21D;54120;53.504;49.426;2023-02-01T07:53:32;-3.64;59.35
67192;HTU21D;54120;53.504;49.426;2023-02-01T07:55:59;-3.58;58.58
67192;HTU21D;54120;53.504;49.426;2023-02-01T07:58:26;-3.74;59.25
67192;HTU21D;54120;53.504;49.426;2023-02-01T08:00:52;-3.65;58.63
67192;HTU21D;54120;53.504;49.426;2023-02-01T08:03:38;-3.66;58.96
67192;HTU21D;54120;53.504;49.426;2023-02-01T08:06:05;-3.41;58.73
67192;HTU21D;54120;53.504;49.426;2023-02-01T08:08:32;-3.07;57.71
67192;HTU21D;54120;53.504;49.426;2023-02-01T08:11:01;-3.04;56.85
67192;HTU21D;54120;53.504;49.426;2023-02-01T08:13:28;-3.03;57.11
67192;HTU21D;54120;53.504;49.426;2023-02-01T08:15:58;-2.94;56.93
67192;HTU21D;54120;53.504;49.426;2023-02-01T08:18:25;-2.97;57.49
67192;HTU21D;54120;53.504;49.426;2023-02-01T08:20:51;-2.82;56.39
67192;HTU21D;54120;53.504;49.426;2023-02-01T08:23:17;-2.80;56.95
67192;HTU21D;54120;53.504;49.426;2023-02-01T08:25:44;-2.45;55.98
67192;HTU21D;54120;53.504;49.426;2023-02-01T08:28:10;-2.37;56.16
67192;HTU21D;54120;53.504;49.426;2023-02-01T08:30:37;-2.21;54.37
67192;HTU21D;54120;53.504;49.426;2023-02-01T08:33:05;-2.28;55.36
67192;HTU21D;54120;53.504;49.426;2023-02-01T08:35:35;-2.33;54.51
67192;HTU21D;54120;53.504;49.426;2023-02-01T08:38:02;-2.24;54.49
67192;HTU21D;54120;53.504;49.426;2023-02-01T08:40:29;-2.17;54.13
67192;HTU21D;54120;53.504;49.426;2023-02-01T08:42:56;-2.38;54.49
67192;HTU21D;54120;53.504;49.426;2023-02-01T08:45:27;-2.41;54.41
67192;HTU21D;54120;53.504;49.426;2023-02-01T08:47:55;-2.06;54.54
67192;HTU21D;54120;53.504;49.426;2023-02-01T08:50:23;-1.75;52.33
67192;HTU21D;54120;53.504;49.426;2023-02-01T08:52:49;-1.80;52.47
67192;HTU21D;54120;53.504;49.426;2023-02-01T08:55:15;-1.72;51.85
67192;HTU21D;54120;53.504;49.426;2023-02-01T08:57:42;-1.41;51.39
67192;HTU21D;54120;53.504;49.426;2023-02-01T09:00:12;-1.36;50.77
67192;HTU21D;54120;53.504;49.426;2023-02-01T09:02:39;-1.46;50.85
67192;HTU21D;54120;53.504;49.426;2023-02-01T09:05:05;-1.50;50.97
67192;HTU21D;54120;53.504;49.426;2023-02-01T09:07:33;-1.55;51.09
67192;HTU21D;54120;53.504;49.426;2023-02-01T09:09:59;-1.32;50.48
67192;HTU21D;54120;53.504;49.426;2023-02-01T09:12:29;-1.25;49.85
67192;HTU21D;54120;53.504;49.426;2023-02-01T09:14:56;-1.15;49.31
67192;HTU21D;54120;53.504;49.426;2023-02-01T09:17:26;-1.27;49.93
67192;HTU21D;54120;53.504;49.426;2023-02-01T09:19:52;-1.03;49.69
67192;HTU21D;54120;53.504;49.426;2023-02-01T09:22:18;-0.94;49.27
67192;HTU21D;54120;53.504;49.426;2023-02-01T09:24:44;-0.99;48.44
67192;HTU21D;54120;53.504;49.426;2023-02-01T09:27:10;-1.09;48.81
67192;HTU21D;54120;53.504;49.426;2023-02-01T09:29:36;-0.85;48.91
67192;HTU21D;54120;53.504;49.426;2023-02-01T09:32:02;-0.71;47.20
67192;HTU21D;54120;53.504;49.426;2023-02-01T09:34:29;-1.00;47.87
67192;HTU21D;54120;53.504;49.426;2023-02-01T09:36:55;-1.09;48.24
67192;HTU21D;54120;53.504;49.426;2023-02-01T09:39:21;-1.06;48.53
67192;HTU21D;54120;53.504;49.426;2023-02-01T09:47:02;-0.70;46.61
67192;HTU21D;54120;53.504;49.426;2023-02-01T09:49:39;-0.75;47.43
67192;HTU21D;54120;53.504;49.426;2023-02-01T09:52:13;-0.90;47.02
67192;HTU21D;54120;53.504;49.426;2023-02-01T09:54:46;-0.99;47.92
67192;HTU21D;54120;53.504;49.426;2023-02-01T10:00:20;-1.19;48.07
67192;HTU21D;54120;53.504;49.426;2023-02-01T10:02:50;-1.27;48.58
67192;HTU21D;54120;53.504;49.426;2023-02-01T10:05:42;-1.24;49.73
67192;HTU21D;54120;53.504;49.426;2023-02-01T10:17:25;-1.38;49.02
67192;HTU21D;54120;53.504;49.426;2023-02-01T10:25:42;-1.54;49.95
67192;HTU21D;54120;53.504;49.426;2023-02-01T10:28:15;-1.40;49.50
67192;HTU21D;54120;53.504;49.426;2023-02-01T10:30:47;-1.39;49.39
67192;HTU21D;54120;53.504;49.426;2023-02-01T10:33:30;-1.29;49.81
67192;HTU21D;54120;53.504;49.426;2023-02-01T10:36:13;-1.18;49.73
67192;HTU21D;54120;53.504;49.426;2023-02-01T10:38:43;-1.17;48.23
67192;HTU21D;54120;53.504;49.426;2023-02-01T10:41:16;-1.29;49.40
67192;HTU21D;54120;53.504;49.426;2023-02-01T10:43:44;-1.31;49.29
67192;HTU21D;54120;53.504;49.426;2023-02-01T10:46:11;-1.24;50.97
67192;HTU21D;54120;53.504;49.426;2023-02-01T10:48:38;-1.18;48.86
67192;HTU21D;54120;53.504;49.426;2023-02-01T10:51:13;-1.23;49.05
67192;HTU21D;54120;53.504;49.426;2023-02-01T10:53:55;-1.28;49.13
67192;HTU21D;54120;53.504;49.426;2023-02-01T10:56:24;-1.26;50.54
67192;HTU21D;54120;53.504;49.426;2023-02-01T10:58:52;-1.28;49.11
67192;HTU21D;54120;53.504;49.426;2023-02-01T11:01:34;-1.32;48.96
67192;HTU21D;54120;53.504;49.426;2023-02-01T11:04:03;-1.28;48.89
67192;HTU21D;54120;53.504;49.426;2023-02-01T11:06:38;-1.35;48.83
67192;HTU21D;54120;53.504;49.426;2023-02-01T11:11:53;-1.58;48.89
67192;HTU21D;54120;53.504;49.426;2023-02-01T11:14:22;-1.63;48.91
67192;HTU21D;54120;53.504;49.426;2023-02-01T11:16:52;-1.75;50.97
67192;HTU21D;54120;53.504;49.426;2023-02-01T11:19:19;-1.76;49.79
67192;HTU21D;54120;53.504;49.426;2023-02-01T11:21:52;-1.76;49.64
67192;HTU21D;54120;53.504;49.426;2023-02-01T11:24:27;-1.73;49.90
67192;HTU21D;54120;53.504;49.426;2023-02-01T11:27:00;-1.68;50.39
67192;HTU21D;54120;53.504;49.426;2023-02-01T11:29:35;-1.63;50.85
67192;HTU21D;54120;53.504;49.426;2023-02-01T11:32:03;-1.55;49.37
67192;HTU21D;54120;53.504;49.426;2023-02-01T11:34:45;-1.58;51.01
67192;HTU21D;54120;53.504;49.426;2023-02-01T11:42:56;-1.89;50.50
67192;HTU21D;54120;53.504;49.426;2023-02-01T11:45:30;-1.92;51.52
67192;HTU21D;54120;53.504;49.426;2023-02-01T11:47:57;-1.85;51.62
67192;HTU21D;54120;53.504;49.426;2023-02-01T11:50:33;-1.85;50.88
67192;HTU21D;54120;53.504;49.426;2023-02-01T11:53:20;-2.04;51.55
67192;HTU21D;54120;53.504;49.426;2023-02-01T12:07:35;-2.15;51.74
67192;HTU21D;54120;53.504;49.426;2023-02-01T12:15:27;-2.27;52.65
67192;HTU21D;54120;53.504;49.426;2023-02-01T12:26:48;-2.46;53.07
67192;HTU21D;54120;53.504;49.426;2023-02-01T12:29:35;-2.53;53.44
67192;HTU21D;54120;53.504;49.426;2023-02-01T12:43:59;-2.73;54.75
67192;HTU21D;54120;53.504;49.426;2023-02-01T12:46:35;-2.86;54.69
67192;HTU21D;54120;53.504;49.426;2023-02-01T12:49:14;-2.92;55.42
67192;HTU21D;54120;53.504;49.426;2023-02-01T12:51:45;-2.97;55.74
67192;HTU21D;54120;53.504;49.426;2023-02-01T12:54:40;-3.09;56.36
67192;HTU21D;54120;53.504;49.426;2023-02-01T12:57:17;-3.24;57.26
67192;HTU21D;54120;53.504;49.426;2023-02-01T12:59:53;-3.38;57.50
67192;HTU21D;54120;53.504;49.426;2023-02-01T13:02:43;-3.49;58.15
67192;HTU21D;54120;53.504;49.426;2023-02-01T13:05:22;-3.64;59.00
67192;HTU21D;54120;53.504;49.426;2023-02-01T13:08:12;-3.74;59.63
67192;HTU21D;54120;53.504;49.426;2023-02-01T13:16:02;-3.89;61.28
67192;HTU21D;54120;53.504;49.426;2023-02-01T13:18:35;-3.95;61.63
67192;HTU21D;54120;53.504;49.426;2023-02-01T13:21:06;-3.96;61.99
67192;HTU21D;54120;53.504;49.426;2023-02-01T13:23:37;-3.99;62.18
67192;HTU21D;54120;53.504;49.426;2023-02-01T13:26:04;-4.00;62.45
67192;HTU21D;54120;53.504;49.426;2023-02-01T13:28:34;-4.02;62.76
67192;HTU21D;54120;53.504;49.426;2023-02-01T13:34:27;-4.02;62.87
67192;HTU21D;54120;53.504;49.426;2023-02-01T13:37:16;-4.01;62.98
67192;HTU21D;54120;53.504;49.426;2023-02-01T13:45:30;-4.14;64.56
67192;HTU21D;54120;53.504;49.426;2023-02-01T13:48:04;-4.21;65.10
67192;HTU21D;54120;53.504;49.426;2023-02-01T13:50:36;-4.28;65.41
67192;HTU21D;54120;53.504;49.426;2023-02-01T13:53:11;-4.31;65.21
67192;HTU21D;54120;53.504;49.426;2023-02-01T13:55:43;-4.40;65.60
67192;HTU21D;54120;53.504;49.426;2023-02-01T13:58:22;-4.39;65.15
67192;HTU21D;54120;53.504;49.426;2023-02-01T14:03:48;-4.44;64.90
67192;HTU21D;54120;53.504;49.426;2023-02-01T14:11:54;-4.58;62.34
67192;HTU21D;54120;53.504;49.426;2023-02-01T14:19:24;-4.63;60.57
67192;HTU21D;54120;53.504;49.426;2023-02-01T14:21:53;-4.63;60.05
67192;HTU21D;54120;53.504;49.426;2023-02-01T14:24:32;-4.70;59.93
67192;HTU21D;54120;53.504;49.426;2023-02-01T14:27:01;-4.70;60.00
67192;HTU21D;54120;53.504;49.426;2023-02-01T14:29:34;-4.75;59.92
67192;HTU21D;54120;53.504;49.426;2023-02-01T14:32:22;-4.79;59.44
67192;HTU21D;54120;53.504;49.426;2023-02-01T14:34:53;-4.83;59.64
67192;HTU21D;54120;53.504;49.426;2023-02-01T14:37:23;-4.87;59.73
67192;HTU21D;54120;53.504;49.426;2023-02-01T14:40:17;-4.95;59.70
67192;HTU21D;54120;53.504;49.426;2023-02-01T14:42:50;-5.02;60.06
67192;HTU21D;54120;53.504;49.426;2023-02-01T14:55:59;-5.33;61.44
67192;HTU21D;54120;53.504;49.426;2023-02-01T15:04:00;-5.55;61.53
67192;HTU21D;54120;53.504;49.426;2023-02-01T15:09:03;-5.73;61.56
67192;HTU21D;54120;53.504;49.426;2023-02-01T15:11:30;-5.79;61.57
67192;HTU21D;54120;53.504;49.426;2023-02-01T15:13:56;-5.83;62.29
67192;HTU21D;54120;53.504;49.426;2023-02-01T15:16:25;-5.86;62.78
67192;HTU21D;54120;53.504;49.426;2023-02-01T15:19:07;-5.85;61.89
67192;HTU21D;54120;53.504;49.426;2023-02-01T15:21:46;-5.86;62.11
67192;HTU21D;54120;53.504;49.426;2023-02-01T15:24:14;-5.90;62.31
67192;HTU21D;54120;53.504;49.426;2023-02-01T15:26:40;-5.91;62.48
67192;HTU21D;54120;53.504;49.426;2023-02-01T15:29:11;-5.89;62.04
67192;HTU21D;54120;53.504;49.426;2023-02-01T15:31:46;-5.89;62.11
67192;HTU21D;54120;53.504;49.426;2023-02-01T15:34:13;-5.90;61.50
67192;HTU21D;54120;53.504;49.426;2023-02-01T15:36:39;-5.92;61.54
67192;HTU21D;54120;53.504;49.426;2023-02-01T15:39:24;-6.12;61.81
67192;HTU21D;54120;53.504;49.426;2023-02-01T15:42:08;-6.21;61.57
67192;HTU21D;54120;53.504;49.426;2023-02-01T15:44:38;-6.22;61.82
67192;HTU21D;54120;53.504;49.426;2023-02-01T15:47:17;-6.41;62.04
67192;HTU21D;54120;53.504;49.426;2023-02-01T15:49:53;-6.52;62.61
67192;HTU21D;54120;53.504;49.426;2023-02-01T15:52:35;-6.53;63.73
67192;HTU21D;54120;53.504;49.426;2023-02-01T15:55:07;-6.58;62.06
67192;HTU21D;54120;53.504;49.426;2023-02-01T15:57:40;-6.60;61.98
67192;HTU21D;54120;53.504;49.426;2023-02-01T16:00:28;-6.60;61.67
67192;HTU21D;54120;53.504;49.426;2023-02-01T16:03:04;-6.67;62.49
67192;HTU21D;54120;53.504;49.426;2023-02-01T16:05:33;-6.78;63.00
67192;HTU21D;54120;53.504;49.426;2023-02-01T16:08:10;-6.85;63.98
67192;HTU21D;54120;53.504;49.426;2023-02-01T16:10:40;-7.04;64.36
67192;HTU21D;54120;53.504;49.426;2023-02-01T16:13:07;-7.13;65.62
67192;HTU21D;54120;53.504;49.426;2023-02-01T16:15:33;-7.22;65.50
67192;HTU21D;54120;53.504;49.426;2023-02-01T16:17:59;-7.32;65.90
67192;HTU21D;54120;53.504;49.426;2023-02-01T16:20:25;-7.42;65.60
67192;HTU21D;54120;53.504;49.426;2023-02-01T16:22:52;-7.46;65.69
67192;HTU21D;54120;53.504;49.426;2023-02-01T16:25:19;-7.41;65.85
67192;HTU21D;54120;53.504;49.426;2023-02-01T16:27:45;-7.30;67.31
67192;HTU21D;54120;53.504;49.426;2023-02-01T16:30:11;-7.24;67.17
67192;HTU21D;54120;53.504;49.426;2023-02-01T16:32:38;-7.42;68.20
67192;HTU21D;54120;53.504;49.426;2023-02-01T16:35:05;-7.52;69.59
67192;HTU21D;54120;53.504;49.426;2023-02-01T16:37:37;-7.64;69.69
67192;HTU21D;54120;53.504;49.426;2023-02-01T16:40:03;-7.72;70.52
67192;HTU21D;54120;53.504;49.426;2023-02-01T16:42:29;-7.76;71.44
67192;HTU21D;54120;53.504;49.426;2023-02-01T16:44:56;-7.63;72.08
67192;HTU21D;54120;53.504;49.426;2023-02-01T16:47:22;-7.56;71.77
67192;HTU21D;54120;53.504;49.426;2023-02-01T16:49:49;-7.59;71.65
67192;HTU21D;54120;53.504;49.426;2023-02-01T16:52:22;-7.60;71.51
67192;HTU21D;54120;53.504;49.426;2023-02-01T16:54:49;-7.64;71.19
67192;HTU21D;54120;53.504;49.426;2023-02-01T16:57:19;-7.80;71.82
67192;HTU21D;54120;53.504;49.426;2023-02-01T16:59:50;-7.81;71.80
67192;HTU21D;54120;53.504;49.426;2023-02-01T17:02:17;-7.83;71.52
67192;HTU21D;54120;53.504;49.426;2023-02-01T17:04:47;-7.93;71.80
67192;HTU21D;54120;53.504;49.426;2023-02-01T17:07:16;-7.91;71.64
67192;HTU21D;54120;53.504;49.426;2023-02-01T17:09:42;-7.92;71.47
67192;HTU21D;54120;53.504;49.426;2023-02-01T17:12:23;-7.89;71.36
67192;HTU21D;54120;53.504;49.426;2023-02-01T17:14:49;-7.89;71.10
67192;HTU21D;54120;53.504;49.426;2023-02-01T17:17:16;-7.95;70.89
67192;HTU21D;54120;53.504;49.426;2023-02-01T17:19:44;-8.00;71.90
67192;HTU21D;54120;53.504;49.426;2023-02-01T17:22:12;-8.04;71.84
67192;HTU21D;54120;53.504;49.426;2023-02-01T17:24:39;-8.11;72.46
67192;HTU21D;54120;53.504;49.426;2023-02-01T17:27:08;-8.07;72.54
67192;HTU21D;54120;53.504;49.426;2023-02-01T17:29:34;-8.01;72.32
67192;HTU21D;54120;53.504;49.426;2023-02-01T17:32:02;-7.99;72.08
67192;HTU21D;54120;53.504;49.426;2023-02-01T17:34:28;-7.98;71.96
67192;HTU21D;54120;53.504;49.426;2023-02-01T17:36:54;-8.04;72.07
67192;HTU21D;54120;53.504;49.426;2023-02-01T17:39:21;-8.09;72.16
67192;HTU21D;54120;53.504;49.426;2023-02-01T17:42:09;-8.15;72.32
67192;HTU21D;54120;53.504;49.426;2023-02-01T17:44:36;-8.18;72.29
67192;HTU21D;54120;53.504;49.426;2023-02-01T17:47:02;-8.26;72.32
67192;HTU21D;54120;53.504;49.426;2023-02-01T17:49:28;-8.29;72.44
67192;HTU21D;54120;53.504;49.426;2023-02-01T17:51:56;-8.36;72.58
67192;HTU21D;54120;53.504;49.426;2023-02-01T17:54:22;-8.39;72.86
67192;HTU21D;54120;53.504;49.426;2023-02-01T17:56:48;-8.36;72.58
67192;HTU21D;54120;53.504;49.426;2023-02-01T17:59:15;-8.30;72.29
67192;HTU21D;54120;53.504;49.426;2023-02-01T18:01:42;-8.28;72.29
67192;HTU21D;54120;53.504;49.426;2023-02-01T18:04:15;-8.36;72.33
67192;HTU21D;54120;53.504;49.426;2023-02-01T18:06:43;-8.40;72.90
67192;HTU21D;54120;53.504;49.426;2023-02-01T18:09:10;-8.40;72.77